createdAt,value
2023-04-05T00:02:00.411Z,17.90
2023-04-05T00:04:28.676Z,30.08
2023-04-05T00:06:57.405Z,22.10
2023-04-05T00:09:24.079Z,24.40
2023-04-05T00:11:50.672Z,24.27
2023-04-05T00:14:17.412Z,19.98
2023-04-05T00:16:44.067Z,24.77
2023-04-05T00:19:13.741Z,27.40
2023-04-05T00:21:40.625Z,23.98
2023-04-05T00:24:09.338Z,27.83
2023-04-05T00:26:36.319Z,25.63
2023-04-05T00:29:03.044Z,20.20
2023-04-05T00:31:30.578Z,22.60
2023-04-05T00:33:57.710Z,27.50
2023-04-05T00:36:24.328Z,22.90
2023-04-05T00:38:50.858Z,23.15
2023-04-05T00:41:17.506Z,23.85
2023-04-05T00:43:44.247Z,18.92
2023-04-05T00:46:11.049Z,32.60
2023-04-05T00:48:38.436Z,23.90
2023-04-05T00:51:09.358Z,22.10
2023-04-05T00:53:37.443Z,24.93
2023-04-05T00:56:04.705Z,22.33
2023-04-05T00:58:31.978Z,22.83
2023-04-05T01:01:06.581Z,20.35
2023-04-05T01:03:35.750Z,25.30
2023-04-05T01:06:09.894Z,25.52
2023-04-05T01:08:56.984Z,22.23
2023-04-05T01:11:26.288Z,28.90
2023-04-05T01:13:59.499Z,23.08
2023-04-05T01:16:27.198Z,25.63
2023-04-05T01:18:56.586Z,28.50
2023-04-05T01:21:37.994Z,31.45
2023-04-05T01:24:32.295Z,29.63
2023-04-05T01:27:16.448Z,29.63
2023-04-05T01:30:08.793Z,26.85
2023-04-05T01:32:46.497Z,30.70
2023-04-05T01:35:24.661Z,24.17
2023-04-05T01:37:57.587Z,40.35
2023-04-05T01:40:24.768Z,30.67
2023-04-05T01:42:51.381Z,25.25
2023-04-05T01:45:17.978Z,40.83
2023-04-05T01:47:44.583Z,24.60
2023-04-05T01:50:11.466Z,30.27
2023-04-05T01:52:38.130Z,28.00
2023-04-05T01:55:04.997Z,27.70
2023-04-05T01:57:31.551Z,37.90
2023-04-05T01:59:58.231Z,28.48
2023-04-05T02:02:24.912Z,31.35
2023-04-05T02:04:51.532Z,30.02
2023-04-05T02:07:18.070Z,33.58
2023-04-05T02:09:44.647Z,36.80
2023-04-05T02:12:12.645Z,26.83
2023-04-05T02:14:39.271Z,35.92
2023-04-05T02:17:05.906Z,32.72
2023-04-05T02:19:37.161Z,34.75
2023-04-05T02:22:03.912Z,43.77
2023-04-05T02:24:30.424Z,29.35
2023-04-05T02:26:57.497Z,30.73
2023-04-05T02:29:24.554Z,40.10
2023-04-05T02:31:51.151Z,27.80
2023-04-05T02:34:17.755Z,33.63
2023-04-05T02:36:44.566Z,28.02
2023-04-05T02:39:11.337Z,25.38
2023-04-05T02:41:38.199Z,26.02
2023-04-05T02:44:04.870Z,29.27
2023-04-05T02:46:31.792Z,28.48
2023-04-05T02:48:59.266Z,26.63
2023-04-05T02:51:28.623Z,24.38
2023-04-05T02:53:55.563Z,26.15
2023-04-05T02:56:22.197Z,28.63
2023-04-05T02:58:49.360Z,24.20
2023-04-05T03:03:49.671Z,30.42
2023-04-05T03:06:16.236Z,20.77
2023-04-05T03:08:49.024Z,21.90
2023-04-05T03:11:20.866Z,27.08
2023-04-05T03:13:51.721Z,25.23
2023-04-05T03:16:47.319Z,23.15
2023-04-05T03:19:26.240Z,27.02
2023-04-05T03:21:59.306Z,41.38
2023-04-05T03:24:31.176Z,43.00
2023-04-05T03:27:06.082Z,30.35
2023-04-05T03:29:39.945Z,85.82
2023-04-05T03:34:47.177Z,71.40
2023-04-05T03:37:15.876Z,58.83
2023-04-05T03:39:48.538Z,259.35
2023-04-05T03:42:16.517Z,244.65
2023-04-05T03:44:44.272Z,112.03
2023-04-05T03:47:13.110Z,49.30
2023-04-05T03:49:41.087Z,32.33
2023-04-05T03:52:08.595Z,33.97
2023-04-05T03:54:35.474Z,37.35
2023-04-05T03:57:03.003Z,32.25
2023-04-05T03:59:31.189Z,33.30
2023-04-05T04:02:00.011Z,28.45
2023-04-05T04:04:28.113Z,29.30
2023-04-05T04:06:56.397Z,26.17
2023-04-05T04:09:25.131Z,25.33
2023-04-05T04:11:51.836Z,24.65
2023-04-05T04:14:21.216Z,35.80
2023-04-05T04:16:56.481Z,29.25
2023-04-05T04:19:51.978Z,32.63
2023-04-05T04:22:41.254Z,24.92
2023-04-05T04:25:18.793Z,31.30
2023-04-05T04:28:01.576Z,28.52
2023-04-05T04:31:04.866Z,32.28
2023-04-05T04:33:50.319Z,32.75
2023-04-05T04:36:39.400Z,28.08
2023-04-05T04:39:27.387Z,29.70
2023-04-05T04:42:23.782Z,48.92
2023-04-05T04:45:02.648Z,45.70
2023-04-05T04:47:42.195Z,55.65
2023-04-05T04:50:19.973Z,53.38
2023-04-05T04:52:47.604Z,49.72
2023-04-05T04:55:14.326Z,48.10
2023-04-05T04:57:42.173Z,40.53
2023-04-05T05:00:13.413Z,51.58
2023-04-05T05:02:40.675Z,42.20
2023-04-05T05:05:07.952Z,51.35
2023-04-05T05:07:35.746Z,40.25
2023-04-05T05:10:03.866Z,76.47
2023-04-05T05:12:31.570Z,62.20
2023-04-05T05:14:58.113Z,61.22
2023-04-05T05:17:25.984Z,96.30
2023-04-05T05:19:54.669Z,62.30
2023-04-05T05:22:22.441Z,78.13
2023-04-05T05:24:49.025Z,56.90
2023-04-05T05:27:15.769Z,54.88
2023-04-05T05:29:42.267Z,53.10
2023-04-05T05:32:09.340Z,55.08
2023-04-05T05:34:37.297Z,60.65
2023-04-05T05:37:04.257Z,53.67
2023-04-05T05:39:30.873Z,45.53
2023-04-05T05:41:57.592Z,61.85
2023-04-05T05:44:24.094Z,59.15
2023-04-05T05:46:50.642Z,59.00
2023-04-05T05:49:17.450Z,49.45
2023-04-05T05:51:44.010Z,56.55
2023-04-05T05:54:10.583Z,43.85
2023-04-05T05:56:37.434Z,50.15
2023-04-05T05:59:07.465Z,59.83
2023-04-05T06:01:38.264Z,61.33
2023-04-05T06:04:11.102Z,55.35
2023-04-05T06:06:38.038Z,61.20
2023-04-05T06:09:04.701Z,59.75
2023-04-05T06:11:31.273Z,50.90
2023-04-05T06:13:57.846Z,54.95
2023-04-05T06:16:27.402Z,54.17
2023-04-05T06:18:56.099Z,49.85
2023-04-05T06:21:22.973Z,38.05
2023-04-05T06:23:49.714Z,53.67
2023-04-05T06:26:22.985Z,51.80
2023-04-05T06:28:50.156Z,50.53
2023-04-05T06:33:44.432Z,42.63
2023-04-05T06:36:11.669Z,43.50
2023-04-05T06:38:38.438Z,44.95
2023-04-05T06:41:05.393Z,32.63
2023-04-05T06:43:32.262Z,40.22
2023-04-05T06:46:01.060Z,33.38
2023-04-05T06:48:29.338Z,36.10
2023-04-05T06:51:00.708Z,40.10
2023-04-05T06:53:28.496Z,32.27
2023-04-05T06:55:56.052Z,30.90
2023-04-05T06:58:29.375Z,39.88
2023-04-05T07:00:56.243Z,30.80
2023-04-05T07:03:22.865Z,45.63
2023-04-05T07:05:59.893Z,36.63
2023-04-05T07:08:28.218Z,47.45
2023-04-05T07:10:55.324Z,40.00
2023-04-05T07:13:24.486Z,36.15
2023-04-05T07:15:51.899Z,35.20
2023-04-05T07:18:19.514Z,45.38
2023-04-05T07:20:49.441Z,39.30
2023-04-05T07:23:16.610Z,36.45
2023-04-05T07:25:43.884Z,41.72
2023-04-05T07:28:10.623Z,37.50
2023-04-05T07:30:37.647Z,42.80
2023-04-05T07:33:04.825Z,45.58
2023-04-05T07:35:31.611Z,43.88
2023-04-05T07:37:58.280Z,44.42
2023-04-05T07:40:27.797Z,45.58
2023-04-05T07:42:54.708Z,28.80
2023-04-05T07:45:21.397Z,31.38
2023-04-05T07:47:48.015Z,30.50
2023-04-05T07:50:15.199Z,24.75
2023-04-05T07:52:42.781Z,33.63
2023-04-05T07:55:10.083Z,31.92
2023-04-05T07:57:37.695Z,48.08
2023-04-05T08:00:10.231Z,29.50
2023-04-05T08:02:40.014Z,33.47
2023-04-05T08:05:06.907Z,22.00
2023-04-05T08:07:33.500Z,27.25
2023-04-05T08:10:00.506Z,20.35
2023-04-05T08:12:27.448Z,12.98
2023-04-05T08:14:54.322Z,11.60
2023-04-05T08:17:21.072Z,12.85
2023-04-05T08:19:49.343Z,14.50
2023-04-05T08:22:17.746Z,10.90
2023-04-05T08:24:47.410Z,19.17
2023-04-05T08:27:14.011Z,10.55
2023-04-05T08:29:40.560Z,12.55
2023-04-05T08:32:07.206Z,13.73
2023-04-05T08:34:33.800Z,9.50
2023-04-05T08:37:00.634Z,13.55
2023-04-05T08:39:27.404Z,18.98
2023-04-05T08:42:18.237Z,19.23
2023-04-05T08:44:47.576Z,17.10
2023-04-05T08:47:18.994Z,16.13
2023-04-05T08:49:46.172Z,16.73
2023-04-05T08:52:12.930Z,13.05
2023-04-05T08:54:40.524Z,14.23
2023-04-05T08:57:10.399Z,18.67
2023-04-05T08:59:40.783Z,17.35
2023-04-05T09:02:14.863Z,22.70
2023-04-05T09:04:44.932Z,14.75
2023-04-05T09:07:14.229Z,18.00
2023-04-05T09:09:44.193Z,19.30
2023-04-05T09:12:11.283Z,26.35
2023-04-05T09:14:38.665Z,19.95
2023-04-05T09:17:09.623Z,15.30
2023-04-05T09:19:36.387Z,16.98
2023-04-05T09:22:07.773Z,24.15
2023-04-05T09:24:44.764Z,27.25
2023-04-05T09:27:17.256Z,29.65
2023-04-05T09:29:47.744Z,32.22
2023-04-05T09:32:15.374Z,32.72
2023-04-05T09:34:43.522Z,31.05
2023-04-05T09:37:22.121Z,20.52
2023-04-05T09:39:51.717Z,31.38
2023-04-05T09:42:24.708Z,28.00
2023-04-05T09:44:51.288Z,26.15
2023-04-05T09:47:20.324Z,28.90
2023-04-05T09:49:51.840Z,37.42
2023-04-05T09:52:19.366Z,32.45
2023-04-05T09:54:45.925Z,37.08
2023-04-05T09:57:12.730Z,30.63
2023-04-05T09:59:40.128Z,32.35
2023-04-05T10:02:07.136Z,28.50
2023-04-05T10:04:43.913Z,28.80
2023-04-05T10:07:15.749Z,21.67
2023-04-05T10:09:44.343Z,25.08
2023-04-05T10:12:16.418Z,27.10
2023-04-05T10:14:43.030Z,25.77
2023-04-05T10:17:14.887Z,27.90
2023-04-05T10:20:08.845Z,24.70
2023-04-05T10:22:41.438Z,21.77
2023-04-05T10:25:35.958Z,26.58
2023-04-05T10:28:10.680Z,20.13
2023-04-05T10:30:47.484Z,22.52
2023-04-05T10:33:26.179Z,20.98
2023-04-05T10:36:17.362Z,16.60
2023-04-05T10:39:21.736Z,19.98
2023-04-05T10:41:52.687Z,14.57
2023-04-05T10:44:26.403Z,16.23
2023-04-05T10:46:55.198Z,21.15
2023-04-05T10:49:39.209Z,18.63
2023-04-05T10:52:07.051Z,18.52
2023-04-05T10:54:36.632Z,13.07
2023-04-05T10:57:09.024Z,15.43
2023-04-05T10:59:42.156Z,16.27
2023-04-05T11:02:09.778Z,18.95
2023-04-05T11:04:38.764Z,15.60
2023-04-05T11:07:17.895Z,16.15
2023-04-05T11:10:01.659Z,16.83
2023-04-05T11:12:46.656Z,19.48
2023-04-05T11:15:29.247Z,23.10
2023-04-05T11:18:06.568Z,28.52
2023-04-05T11:20:57.811Z,20.55
2023-04-05T11:23:25.725Z,19.95
2023-04-05T11:25:55.993Z,21.00
2023-04-05T11:28:31.792Z,19.27
2023-04-05T11:31:12.869Z,18.67
2023-04-05T11:33:42.222Z,16.67
2023-04-05T11:36:09.927Z,15.07
2023-04-05T11:38:37.177Z,12.77
2023-04-05T11:43:27.901Z,32.22
2023-04-05T11:45:54.721Z,14.57
2023-04-05T11:48:22.352Z,16.52
2023-04-05T11:50:51.014Z,14.27
2023-04-05T11:53:18.215Z,14.40
2023-04-05T11:55:51.104Z,18.10
2023-04-05T11:58:23.188Z,15.02
2023-04-05T12:01:07.719Z,19.55
2023-04-05T12:03:37.916Z,16.73
2023-04-05T12:06:06.132Z,22.60
2023-04-05T12:08:39.386Z,13.63
2023-04-05T12:11:08.952Z,17.35
2023-04-05T12:13:36.459Z,17.60
2023-04-05T12:16:06.006Z,17.33
2023-04-05T12:18:37.035Z,21.35
2023-04-05T12:21:07.519Z,16.30
2023-04-05T12:23:35.886Z,11.93
2023-04-05T12:26:04.422Z,15.57
2023-04-05T12:28:56.433Z,18.80
2023-04-05T12:31:45.951Z,15.68
2023-04-05T12:34:14.612Z,17.67
2023-04-05T12:36:46.061Z,14.73
2023-04-05T12:39:12.650Z,99.03
2023-04-05T12:41:39.925Z,20.40
2023-04-05T12:44:30.562Z,35.75
2023-04-05T12:47:07.612Z,18.67
2023-04-05T12:49:38.035Z,22.35
2023-04-05T12:52:07.719Z,32.80
2023-04-05T12:54:34.541Z,20.08
2023-04-05T12:57:04.318Z,12.40
2023-04-05T12:59:30.995Z,29.48
2023-04-05T13:01:57.564Z,22.05
2023-04-05T13:04:26.211Z,11.35
2023-04-05T13:06:52.741Z,18.10
2023-04-05T13:09:19.292Z,16.40
2023-04-05T13:11:45.818Z,14.77
2023-04-05T13:14:12.540Z,13.90
2023-04-05T13:16:39.067Z,16.65
2023-04-05T13:19:05.671Z,28.23
2023-04-05T13:24:08.612Z,16.33
2023-04-05T13:28:50.907Z,13.50
2023-04-05T13:31:17.661Z,11.10
2023-04-05T13:33:44.292Z,12.95
2023-04-05T13:36:12.523Z,16.15
2023-04-05T13:38:39.368Z,16.08
2023-04-05T13:41:06.137Z,11.82
2023-04-05T13:43:32.662Z,18.48
2023-04-05T13:45:59.447Z,19.15
2023-04-05T13:48:25.992Z,20.55
2023-04-05T13:50:52.574Z,17.35
2023-04-05T13:53:19.112Z,15.13
2023-04-05T13:55:45.671Z,12.40
2023-04-05T13:58:14.122Z,12.60
2023-04-05T14:00:41.092Z,11.18
2023-04-05T14:03:07.968Z,12.98
2023-04-05T14:05:34.824Z,11.88
2023-04-05T14:08:01.375Z,12.73
2023-04-05T14:10:27.938Z,19.15
2023-04-05T14:12:54.423Z,12.65
2023-04-05T14:15:21.540Z,13.07
2023-04-05T14:17:48.044Z,13.88
2023-04-05T14:20:14.805Z,19.55
2023-04-05T14:22:41.476Z,12.23
2023-04-05T14:25:08.433Z,11.65
2023-04-05T14:27:37.580Z,14.45
2023-04-05T14:30:04.800Z,15.98
2023-04-05T14:32:33.746Z,13.27
2023-04-05T14:35:00.728Z,9.95
2023-04-05T14:37:27.510Z,11.77
2023-04-05T14:39:54.056Z,14.70
2023-04-05T14:42:21.603Z,11.80
2023-04-05T14:44:48.245Z,15.45
2023-04-05T14:47:14.790Z,11.90
2023-04-05T14:49:41.388Z,12.50
2023-04-05T14:52:08.083Z,11.93
2023-04-05T14:54:34.733Z,11.10
2023-04-05T14:57:01.533Z,12.95
2023-04-05T14:59:28.317Z,14.63
2023-04-05T15:01:54.910Z,14.10
2023-04-05T15:04:21.550Z,11.95
2023-04-05T15:06:48.375Z,14.32
2023-04-05T15:09:15.283Z,11.95
2023-04-05T15:14:11.509Z,11.00
2023-04-05T15:16:47.806Z,11.70
2023-04-05T15:19:14.434Z,12.57
2023-04-05T15:21:41.211Z,11.65
2023-04-05T15:26:29.076Z,11.88
2023-04-05T15:28:55.662Z,12.35
2023-04-05T15:31:22.200Z,18.08
2023-04-05T15:33:48.773Z,11.93
2023-04-05T15:36:15.316Z,11.68
2023-04-05T15:38:42.019Z,17.05
2023-04-05T15:41:08.597Z,11.60
2023-04-05T15:43:35.213Z,10.02
2023-04-05T15:46:01.966Z,10.05
2023-04-05T15:48:28.639Z,9.18
2023-04-05T15:50:55.172Z,12.15
2023-04-05T15:53:21.799Z,11.02
2023-04-05T15:55:48.307Z,8.73
2023-04-05T15:58:15.249Z,11.07
2023-04-05T16:00:41.763Z,14.18
2023-04-05T16:03:08.446Z,10.98
2023-04-05T16:05:34.973Z,9.77
2023-04-05T16:08:01.728Z,9.27
2023-04-05T16:10:28.309Z,10.32
2023-04-05T16:12:54.924Z,12.70
2023-04-05T16:15:21.924Z,12.60
2023-04-05T16:17:48.620Z,12.73
2023-04-05T16:20:17.414Z,15.07
2023-04-05T16:22:45.117Z,10.75
2023-04-05T16:25:12.206Z,14.18
2023-04-05T16:27:39.072Z,9.82
2023-04-05T16:30:06.314Z,9.90
2023-04-05T16:32:33.048Z,11.70
2023-04-05T16:34:59.786Z,13.98
2023-04-05T16:37:26.509Z,12.73
2023-04-05T16:39:53.115Z,13.40
2023-04-05T16:42:19.676Z,18.63
2023-04-05T16:44:46.248Z,12.15
2023-04-05T16:47:12.992Z,22.15
2023-04-05T16:49:39.786Z,20.40
2023-04-05T16:52:06.536Z,26.60
2023-04-05T16:54:33.271Z,19.30
2023-04-05T16:57:00.793Z,21.05
2023-04-05T16:59:27.770Z,23.95
2023-04-05T17:01:54.395Z,13.85
2023-04-05T17:04:21.001Z,21.75
2023-04-05T17:06:47.691Z,22.17
2023-04-05T17:09:15.080Z,30.52
2023-04-05T17:11:41.685Z,50.55
2023-04-05T17:14:08.213Z,82.53
2023-04-05T17:16:34.915Z,66.95
2023-04-05T17:19:01.674Z,42.65
2023-04-05T17:21:28.466Z,33.03
2023-04-05T17:23:55.101Z,37.92
2023-04-05T17:26:23.822Z,32.55
2023-04-05T17:28:50.407Z,26.55
2023-04-05T17:31:17.067Z,36.47
2023-04-05T17:33:44.373Z,29.05
2023-04-05T17:36:12.504Z,25.00
2023-04-05T17:38:39.126Z,24.40
2023-04-05T17:41:08.796Z,23.75
2023-04-05T17:43:35.636Z,35.40
2023-04-05T17:46:02.917Z,41.35
2023-04-05T17:48:29.714Z,46.05
2023-04-05T17:50:56.588Z,68.38
2023-04-05T17:53:23.224Z,61.35
2023-04-05T17:55:49.813Z,63.80
2023-04-05T17:58:16.388Z,111.43
2023-04-05T18:00:43.598Z,123.93
2023-04-05T18:03:12.971Z,191.07
2023-04-05T18:05:40.089Z,200.27
2023-04-05T18:08:06.643Z,164.65
2023-04-05T18:10:33.316Z,108.40
2023-04-05T18:12:59.937Z,123.18
2023-04-05T18:15:27.105Z,93.50
2023-04-05T18:17:53.682Z,86.10
2023-04-05T18:20:20.269Z,79.65
2023-04-05T18:22:46.849Z,61.92
2023-04-05T18:25:13.559Z,78.80
2023-04-05T18:27:42.336Z,71.65
2023-04-05T18:30:10.519Z,64.88
2023-04-05T18:32:38.908Z,51.60
2023-04-05T18:35:06.267Z,60.58
2023-04-05T18:37:32.810Z,63.75
2023-04-05T18:39:59.399Z,42.15
2023-04-05T18:42:25.976Z,37.40
2023-04-05T18:44:52.693Z,39.83
2023-04-05T18:47:19.213Z,54.17
2023-04-05T18:49:46.265Z,47.65
2023-04-05T18:52:12.856Z,34.22
2023-04-05T18:54:39.975Z,46.67
2023-04-05T18:57:07.086Z,35.00
2023-04-05T18:59:33.737Z,45.15
2023-04-05T19:02:00.450Z,33.42
2023-04-05T19:04:27.161Z,35.03
2023-04-05T19:06:53.802Z,40.92
2023-04-05T19:09:21.898Z,35.78
2023-04-05T19:11:48.437Z,23.75
2023-04-05T19:14:15.038Z,25.73
2023-04-05T19:16:42.596Z,35.58
2023-04-05T19:19:09.389Z,39.85
2023-04-05T19:21:36.165Z,36.78
2023-04-05T19:24:02.876Z,41.65
2023-04-05T19:26:29.423Z,54.25
2023-04-05T19:28:57.301Z,47.63
2023-04-05T19:31:23.894Z,44.05
2023-04-05T19:33:50.920Z,37.05
2023-04-05T19:36:18.645Z,39.58
2023-04-05T19:38:48.285Z,40.22
2023-04-05T19:41:14.944Z,49.10
2023-04-05T19:43:42.779Z,68.63
2023-04-05T19:46:12.545Z,70.57
2023-04-05T19:48:41.999Z,71.25
2023-04-05T19:51:14.312Z,60.40
2023-04-05T19:53:41.667Z,56.28
2023-04-05T19:56:21.666Z,48.72
2023-04-05T19:59:03.016Z,50.53
2023-04-05T20:01:36.728Z,52.72
2023-04-05T20:04:15.434Z,46.20
2023-04-05T20:06:43.538Z,36.53
2023-04-05T20:09:14.891Z,32.22
2023-04-05T20:11:43.978Z,36.93
2023-04-05T20:14:10.985Z,32.55
2023-04-05T20:16:38.160Z,27.25
2023-04-05T20:19:08.277Z,28.77
2023-04-05T20:21:37.220Z,25.70
2023-04-05T20:24:08.709Z,24.00
2023-04-05T20:28:54.104Z,17.45
2023-04-05T20:31:25.900Z,20.90
2023-04-05T20:34:09.394Z,18.70
2023-04-05T20:36:37.930Z,24.52
2023-04-05T20:39:08.987Z,19.50
2023-04-05T20:41:36.194Z,25.00
2023-04-05T20:44:04.010Z,22.35
2023-04-05T20:46:30.772Z,23.00
2023-04-05T20:48:58.002Z,30.40
2023-04-05T20:51:27.792Z,23.65
2023-04-05T20:53:54.821Z,27.35
2023-04-05T20:56:21.467Z,24.05
2023-04-05T20:58:48.134Z,20.42
2023-04-05T21:01:14.830Z,32.60
2023-04-05T21:03:42.288Z,22.70
2023-04-05T21:06:10.268Z,20.13
2023-04-05T21:08:39.620Z,24.35
2023-04-05T21:11:07.584Z,25.67
2023-04-05T21:13:35.470Z,20.80
2023-04-05T21:16:02.150Z,17.75
2023-04-05T21:18:28.675Z,18.05
2023-04-05T21:20:55.492Z,16.73
2023-04-05T21:23:28.982Z,17.17
2023-04-05T21:25:56.796Z,21.60
2023-04-05T21:28:24.608Z,17.20
2023-04-05T21:30:51.606Z,20.35
2023-04-05T21:33:18.863Z,24.13
2023-04-05T21:35:48.469Z,19.27
2023-04-05T21:38:15.942Z,22.58
2023-04-05T21:40:44.564Z,18.67
2023-04-05T21:43:12.491Z,20.42
2023-04-05T21:45:39.052Z,24.58
2023-04-05T21:48:06.069Z,28.20
2023-04-05T21:50:32.720Z,19.02
2023-04-05T21:52:59.203Z,20.08
2023-04-05T21:55:25.851Z,19.55
2023-04-05T21:57:52.452Z,20.27
2023-04-05T22:00:20.012Z,18.20
2023-04-05T22:02:47.080Z,19.30
2023-04-05T22:05:25.620Z,18.20
2023-04-05T22:07:56.661Z,19.65
2023-04-05T22:10:23.315Z,18.30
2023-04-05T22:12:52.564Z,15.50
2023-04-05T22:15:19.171Z,18.90
2023-04-05T22:17:45.876Z,24.65
2023-04-05T22:20:12.681Z,17.73
2023-04-05T22:22:41.966Z,20.08
2023-04-05T22:25:09.742Z,20.58
2023-04-05T22:27:36.354Z,16.98
2023-04-05T22:30:03.716Z,24.05
2023-04-05T22:32:30.456Z,21.05
2023-04-05T22:34:59.768Z,18.17
2023-04-05T22:37:26.477Z,22.95
2023-04-05T22:39:52.946Z,16.67
2023-04-05T22:42:19.557Z,22.67
2023-04-05T22:44:46.143Z,23.67
2023-04-05T22:47:12.925Z,17.92
2023-04-05T22:49:39.427Z,24.35
2023-04-05T22:52:06.213Z,22.08
2023-04-05T22:54:32.705Z,23.30
2023-04-05T22:59:14.159Z,20.50
2023-04-05T23:01:41.101Z,20.30
2023-04-05T23:04:07.867Z,20.88
2023-04-05T23:08:55.933Z,18.65
2023-04-05T23:11:22.463Z,21.42
2023-04-05T23:13:49.761Z,21.63
2023-04-05T23:16:16.924Z,23.05
2023-04-05T23:18:43.558Z,25.00
2023-04-05T23:21:11.150Z,22.38
2023-04-05T23:23:37.659Z,17.85
2023-04-05T23:26:04.410Z,24.17
2023-04-05T23:28:30.947Z,22.05
2023-04-05T23:30:57.597Z,25.88
2023-04-05T23:33:24.115Z,26.50
2023-04-05T23:35:51.014Z,26.17
2023-04-05T23:38:17.555Z,31.00
2023-04-05T23:40:44.092Z,18.23
2023-04-05T23:43:11.046Z,25.75
2023-04-05T23:45:37.726Z,21.40
2023-04-05T23:48:04.682Z,21.23
2023-04-05T23:50:31.529Z,28.75
2023-04-05T23:52:58.215Z,20.35
2023-04-05T23:55:24.878Z,24.33
2023-04-05T23:57:52.136Z,23.65
